sensor_id;sensor_type;location;lat;lon;timestamp;P1;durP1;ratioP1;P2;durP2;ratioP2
13975;SDS011;7062;49.792;9.946;2023-02-28T00:01:10;6.00;;;3.13;;
13975;SDS011;7062;49.792;9.946;2023-02-28T00:03:37;6.72;;;3.22;;
13975;SDS011;7062;49.792;9.946;2023-02-28T00:06:03;3.37;;;2.80;;
13975;SDS011;7062;49.792;9.946;2023-02-28T00:08:30;3.25;;;2.88;;
13975;SDS011;7062;49.792;9.946;2023-02-28T00:11:00;4.70;;;3.47;;
13975;SDS011;7062;49.792;9.946;2023-02-28T00:13:30;4.13;;;3.25;;
13975;SDS011;7062;49.792;9.946;2023-02-28T00:16:02;3.88;;;3.13;;
13975;SDS011;7062;49.792;9.946;2023-02-28T00:18:30;5.95;;;3.97;;
13975;SDS011;7062;49.792;9.946;2023-02-28T00:20:57;6.63;;;3.45;;
13975;SDS011;7062;49.792;9.946;2023-02-28T00:23:23;3.90;;;2.92;;
13975;SDS011;7062;49.792;9.946;2023-02-28T00:25:49;5.80;;;3.00;;
13975;SDS011;7062;49.792;9.946;2023-02-28T00:28:15;5.07;;;3.38;;
13975;SDS011;7062;49.792;9.946;2023-02-28T00:30:41;5.20;;;3.97;;
13975;SDS011;7062;49.792;9.946;2023-02-28T00:33:06;5.30;;;3.50;;
13975;SDS011;7062;49.792;9.946;2023-02-28T00:35:32;4.53;;;3.23;;
13975;SDS011;7062;49.792;9.946;2023-02-28T00:37:58;4.97;;;3.13;;
13975;SDS011;7062;49.792;9.946;2023-02-28T00:40:23;7.33;;;3.63;;
13975;SDS011;7062;49.792;9.946;2023-02-28T00:42:49;8.13;;;3.50;;
13975;SDS011;7062;49.792;9.946;2023-02-28T00:45:14;3.67;;;3.33;;
13975;SDS011;7062;49.792;9.946;2023-02-28T00:47:40;3.40;;;2.73;;
13975;SDS011;7062;49.792;9.946;2023-02-28T00:50:06;4.87;;;3.20;;
13975;SDS011;7062;49.792;9.946;2023-02-28T00:52:32;6.07;;;3.65;;
13975;SDS011;7062;49.792;9.946;2023-02-28T00:54:58;5.00;;;3.87;;
13975;SDS011;7062;49.792;9.946;2023-02-28T00:57:23;4.53;;;3.37;;
13975;SDS011;7062;49.792;9.946;2023-02-28T00:59:49;4.37;;;3.80;;
13975;SDS011;7062;49.792;9.946;2023-02-28T01:02:15;7.83;;;4.23;;
13975;SDS011;7062;49.792;9.946;2023-02-28T01:04:41;4.13;;;3.50;;
13975;SDS011;7062;49.792;9.946;2023-02-28T01:07:06;9.23;;;3.77;;
13975;SDS011;7062;49.792;9.946;2023-02-28T01:09:32;4.87;;;3.23;;
13975;SDS011;7062;49.792;9.946;2023-02-28T01:11:58;3.07;;;2.77;;
13975;SDS011;7062;49.792;9.946;2023-02-28T01:14:24;5.20;;;3.50;;
13975;SDS011;7062;49.792;9.946;2023-02-28T01:16:49;7.00;;;3.67;;
13975;SDS011;7062;49.792;9.946;2023-02-28T01:19:16;4.57;;;3.08;;
13975;SDS011;7062;49.792;9.946;2023-02-28T01:21:42;5.07;;;3.47;;
13975;SDS011;7062;49.792;9.946;2023-02-28T01:24:07;4.37;;;3.97;;
13975;SDS011;7062;49.792;9.946;2023-02-28T01:26:33;4.20;;;3.00;;
13975;SDS011;7062;49.792;9.946;2023-02-28T01:28:58;3.67;;;3.30;;
13975;SDS011;7062;49.792;9.946;2023-02-28T01:31:24;6.23;;;3.17;;
13975;SDS011;7062;49.792;9.946;2023-02-28T01:33:50;4.22;;;3.42;;
13975;SDS011;7062;49.792;9.946;2023-02-28T01:36:20;3.63;;;3.23;;
13975;SDS011;7062;49.792;9.946;2023-02-28T01:38:48;4.05;;;3.28;;
13975;SDS011;7062;49.792;9.946;2023-02-28T01:41:16;3.78;;;3.15;;
13975;SDS011;7062;49.792;9.946;2023-02-28T01:46:07;3.17;;;2.87;;
13975;SDS011;7062;49.792;9.946;2023-02-28T01:48:35;3.90;;;3.50;;
13975;SDS011;7062;49.792;9.946;2023-02-28T01:51:09;4.70;;;3.35;;
13975;SDS011;7062;49.792;9.946;2023-02-28T01:54:00;4.10;;;2.95;;
13975;SDS011;7062;49.792;9.946;2023-02-28T01:56:30;4.88;;;3.30;;
13975;SDS011;7062;49.792;9.946;2023-02-28T01:59:01;4.05;;;3.20;;
13975;SDS011;7062;49.792;9.946;2023-02-28T02:01:28;4.05;;;3.40;;
13975;SDS011;7062;49.792;9.946;2023-02-28T02:03:55;4.20;;;3.70;;
13975;SDS011;7062;49.792;9.946;2023-02-28T02:06:23;5.38;;;3.55;;
13975;SDS011;7062;49.792;9.946;2023-02-28T02:08:52;4.68;;;3.83;;
13975;SDS011;7062;49.792;9.946;2023-02-28T02:11:19;5.73;;;3.70;;
13975;SDS011;7062;49.792;9.946;2023-02-28T02:18:53;4.15;;;3.25;;
13975;SDS011;7062;49.792;9.946;2023-02-28T02:36:14;3.72;;;3.22;;
13975;SDS011;7062;49.792;9.946;2023-02-28T02:41:04;5.57;;;3.63;;
13975;SDS011;7062;49.792;9.946;2023-02-28T02:43:39;4.03;;;3.30;;
13975;SDS011;7062;49.792;9.946;2023-02-28T02:46:16;5.22;;;4.30;;
13975;SDS011;7062;49.792;9.946;2023-02-28T02:48:46;4.13;;;3.72;;
13975;SDS011;7062;49.792;9.946;2023-02-28T02:51:14;5.85;;;3.78;;
13975;SDS011;7062;49.792;9.946;2023-02-28T02:53:45;5.10;;;4.25;;
13975;SDS011;7062;49.792;9.946;2023-02-28T02:56:18;3.97;;;3.42;;
13975;SDS011;7062;49.792;9.946;2023-02-28T02:58:49;5.57;;;4.22;;
13975;SDS011;7062;49.792;9.946;2023-02-28T03:01:21;4.57;;;4.18;;
13975;SDS011;7062;49.792;9.946;2023-02-28T03:03:55;6.07;;;4.53;;
13975;SDS011;7062;49.792;9.946;2023-02-28T03:06:47;5.70;;;5.10;;
13975;SDS011;7062;49.792;9.946;2023-02-28T03:09:13;5.18;;;3.88;;
13975;SDS011;7062;49.792;9.946;2023-02-28T03:11:39;4.00;;;3.47;;
13975;SDS011;7062;49.792;9.946;2023-02-28T03:19:51;3.92;;;3.38;;
13975;SDS011;7062;49.792;9.946;2023-02-28T03:22:37;6.28;;;4.20;;
13975;SDS011;7062;49.792;9.946;2023-02-28T03:25:21;4.28;;;3.58;;
13975;SDS011;7062;49.792;9.946;2023-02-28T03:27:55;6.40;;;3.45;;
13975;SDS011;7062;49.792;9.946;2023-02-28T03:33:03;4.50;;;3.65;;
13975;SDS011;7062;49.792;9.946;2023-02-28T03:35:32;4.65;;;3.80;;
13975;SDS011;7062;49.792;9.946;2023-02-28T03:38:19;4.03;;;3.63;;
13975;SDS011;7062;49.792;9.946;2023-02-28T03:40:55;5.30;;;4.80;;
13975;SDS011;7062;49.792;9.946;2023-02-28T03:43:28;4.32;;;3.53;;
13975;SDS011;7062;49.792;9.946;2023-02-28T03:45:57;7.00;;;4.28;;
13975;SDS011;7062;49.792;9.946;2023-02-28T03:48:30;5.65;;;4.28;;
13975;SDS011;7062;49.792;9.946;2023-02-28T03:51:01;4.30;;;3.90;;
13975;SDS011;7062;49.792;9.946;2023-02-28T03:53:34;6.15;;;3.88;;
13975;SDS011;7062;49.792;9.946;2023-02-28T03:56:08;7.28;;;4.47;;
13975;SDS011;7062;49.792;9.946;2023-02-28T04:03:52;4.65;;;4.20;;
13975;SDS011;7062;49.792;9.946;2023-02-28T04:06:19;5.53;;;3.90;;
13975;SDS011;7062;49.792;9.946;2023-02-28T04:08:46;7.45;;;3.90;;
13975;SDS011;7062;49.792;9.946;2023-02-28T04:11:21;6.20;;;4.40;;
13975;SDS011;7062;49.792;9.946;2023-02-28T04:13:50;4.88;;;4.32;;
13975;SDS011;7062;49.792;9.946;2023-02-28T04:16:16;4.90;;;3.57;;
13975;SDS011;7062;49.792;9.946;2023-02-28T04:18:41;4.97;;;3.93;;
13975;SDS011;7062;49.792;9.946;2023-02-28T04:21:10;5.00;;;4.20;;
13975;SDS011;7062;49.792;9.946;2023-02-28T04:23:36;8.70;;;5.07;;
13975;SDS011;7062;49.792;9.946;2023-02-28T04:26:02;4.53;;;4.13;;
13975;SDS011;7062;49.792;9.946;2023-02-28T04:28:28;4.97;;;3.92;;
13975;SDS011;7062;49.792;9.946;2023-02-28T04:30:57;5.33;;;4.77;;
13975;SDS011;7062;49.792;9.946;2023-02-28T04:33:24;7.47;;;4.80;;
13975;SDS011;7062;49.792;9.946;2023-02-28T04:36:03;6.57;;;4.83;;
13975;SDS011;7062;49.792;9.946;2023-02-28T04:38:37;4.95;;;4.30;;
13975;SDS011;7062;49.792;9.946;2023-02-28T04:41:03;5.70;;;4.00;;
13975;SDS011;7062;49.792;9.946;2023-02-28T04:43:30;5.40;;;4.45;;
13975;SDS011;7062;49.792;9.946;2023-02-28T04:45:56;8.05;;;4.90;;
13975;SDS011;7062;49.792;9.946;2023-02-28T04:48:23;6.03;;;4.55;;
13975;SDS011;7062;49.792;9.946;2023-02-28T04:50:49;6.45;;;5.03;;
13975;SDS011;7062;49.792;9.946;2023-02-28T04:53:16;6.13;;;4.45;;
13975;SDS011;7062;49.792;9.946;2023-02-28T04:55:41;6.57;;;4.63;;
13975;SDS011;7062;49.792;9.946;2023-02-28T04:58:07;4.70;;;3.90;;
13975;SDS011;7062;49.792;9.946;2023-02-28T05:00:33;7.40;;;4.47;;
13975;SDS011;7062;49.792;9.946;2023-02-28T05:02:58;4.93;;;4.43;;
13975;SDS011;7062;49.792;9.946;2023-02-28T05:05:24;4.87;;;4.47;;
13975;SDS011;7062;49.792;9.946;2023-02-28T05:07:50;8.97;;;4.33;;
13975;SDS011;7062;49.792;9.946;2023-02-28T05:10:15;4.83;;;3.90;;
13975;SDS011;7062;49.792;9.946;2023-02-28T05:12:41;5.33;;;4.07;;
13975;SDS011;7062;49.792;9.946;2023-02-28T05:15:08;5.60;;;3.67;;
13975;SDS011;7062;49.792;9.946;2023-02-28T05:17:37;5.90;;;4.65;;
13975;SDS011;7062;49.792;9.946;2023-02-28T05:20:03;5.43;;;3.73;;
13975;SDS011;7062;49.792;9.946;2023-02-28T05:22:30;6.15;;;4.05;;
13975;SDS011;7062;49.792;9.946;2023-02-28T05:24:55;6.63;;;4.47;;
13975;SDS011;7062;49.792;9.946;2023-02-28T05:27:21;4.10;;;3.70;;
13975;SDS011;7062;49.792;9.946;2023-02-28T05:29:47;4.80;;;3.80;;
13975;SDS011;7062;49.792;9.946;2023-02-28T05:32:12;6.03;;;4.37;;
13975;SDS011;7062;49.792;9.946;2023-02-28T05:34:40;5.50;;;3.85;;
13975;SDS011;7062;49.792;9.946;2023-02-28T05:37:08;4.22;;;3.78;;
13975;SDS011;7062;49.792;9.946;2023-02-28T05:39:37;6.78;;;3.78;;
13975;SDS011;7062;49.792;9.946;2023-02-28T05:42:03;7.87;;;4.13;;
13975;SDS011;7062;49.792;9.946;2023-02-28T05:44:30;6.32;;;3.47;;
13975;SDS011;7062;49.792;9.946;2023-02-28T05:46:55;3.60;;;3.30;;
13975;SDS011;7062;49.792;9.946;2023-02-28T05:49:21;5.80;;;4.03;;
13975;SDS011;7062;49.792;9.946;2023-02-28T05:51:47;6.97;;;4.27;;
13975;SDS011;7062;49.792;9.946;2023-02-28T05:54:12;5.17;;;3.67;;
13975;SDS011;7062;49.792;9.946;2023-02-28T05:56:38;6.20;;;3.90;;
13975;SDS011;7062;49.792;9.946;2023-02-28T05:59:05;6.82;;;3.83;;
13975;SDS011;7062;49.792;9.946;2023-02-28T06:01:41;4.23;;;3.77;;
13975;SDS011;7062;49.792;9.946;2023-02-28T06:04:13;4.55;;;3.33;;
13975;SDS011;7062;49.792;9.946;2023-02-28T06:06:43;8.50;;;3.83;;
13975;SDS011;7062;49.792;9.946;2023-02-28T06:09:10;5.32;;;3.45;;
13975;SDS011;7062;49.792;9.946;2023-02-28T06:11:36;4.20;;;3.17;;
13975;SDS011;7062;49.792;9.946;2023-02-28T06:14:02;7.83;;;3.90;;
13975;SDS011;7062;49.792;9.946;2023-02-28T06:16:28;6.65;;;3.90;;
13975;SDS011;7062;49.792;9.946;2023-02-28T06:18:59;6.00;;;3.63;;
13975;SDS011;7062;49.792;9.946;2023-02-28T06:21:27;7.28;;;4.07;;
13975;SDS011;7062;49.792;9.946;2023-02-28T06:23:53;4.20;;;3.55;;
13975;SDS011;7062;49.792;9.946;2023-02-28T06:26:20;5.65;;;3.95;;
13975;SDS011;7062;49.792;9.946;2023-02-28T06:28:46;5.97;;;3.97;;
13975;SDS011;7062;49.792;9.946;2023-02-28T06:31:13;7.07;;;3.72;;
13975;SDS011;7062;49.792;9.946;2023-02-28T06:33:41;4.85;;;3.55;;
13975;SDS011;7062;49.792;9.946;2023-02-28T06:36:08;7.60;;;3.35;;
13975;SDS011;7062;49.792;9.946;2023-02-28T06:38:35;4.57;;;3.63;;
13975;SDS011;7062;49.792;9.946;2023-02-28T06:41:02;5.50;;;3.40;;
13975;SDS011;7062;49.792;9.946;2023-02-28T06:43:29;7.07;;;3.58;;
13975;SDS011;7062;49.792;9.946;2023-02-28T06:45:58;5.18;;;3.88;;
13975;SDS011;7062;49.792;9.946;2023-02-28T06:48:25;4.20;;;3.75;;
13975;SDS011;7062;49.792;9.946;2023-02-28T06:50:52;5.72;;;3.50;;
13975;SDS011;7062;49.792;9.946;2023-02-28T06:53:27;5.68;;;3.50;;
13975;SDS011;7062;49.792;9.946;2023-02-28T06:55:53;7.57;;;3.23;;
13975;SDS011;7062;49.792;9.946;2023-02-28T06:58:18;7.60;;;3.43;;
13975;SDS011;7062;49.792;9.946;2023-02-28T07:00:44;8.07;;;4.20;;
13975;SDS011;7062;49.792;9.946;2023-02-28T07:03:11;5.07;;;3.28;;
13975;SDS011;7062;49.792;9.946;2023-02-28T07:05:37;4.88;;;3.47;;
13975;SDS011;7062;49.792;9.946;2023-02-28T07:08:04;7.63;;;3.10;;
13975;SDS011;7062;49.792;9.946;2023-02-28T07:10:31;7.80;;;5.85;;
13975;SDS011;7062;49.792;9.946;2023-02-28T07:12:58;5.10;;;3.30;;
13975;SDS011;7062;49.792;9.946;2023-02-28T07:15:23;6.28;;;3.85;;
13975;SDS011;7062;49.792;9.946;2023-02-28T07:17:49;4.47;;;3.87;;
13975;SDS011;7062;49.792;9.946;2023-02-28T07:20:15;5.27;;;3.70;;
13975;SDS011;7062;49.792;9.946;2023-02-28T07:22:41;4.20;;;3.67;;
13975;SDS011;7062;49.792;9.946;2023-02-28T07:25:07;4.77;;;3.60;;
13975;SDS011;7062;49.792;9.946;2023-02-28T07:27:33;4.13;;;3.70;;
13975;SDS011;7062;49.792;9.946;2023-02-28T07:29:59;7.47;;;4.07;;
13975;SDS011;7062;49.792;9.946;2023-02-28T07:32:26;5.40;;;3.92;;
13975;SDS011;7062;49.792;9.946;2023-02-28T07:34:52;5.65;;;4.07;;
13975;SDS011;7062;49.792;9.946;2023-02-28T07:37:18;8.17;;;4.13;;
13975;SDS011;7062;49.792;9.946;2023-02-28T07:39:45;5.88;;;4.18;;
13975;SDS011;7062;49.792;9.946;2023-02-28T07:42:10;5.47;;;4.00;;
13975;SDS011;7062;49.792;9.946;2023-02-28T07:44:40;7.32;;;4.25;;
13975;SDS011;7062;49.792;9.946;2023-02-28T07:47:10;5.20;;;4.22;;
13975;SDS011;7062;49.792;9.946;2023-02-28T07:49:36;7.85;;;4.20;;
13975;SDS011;7062;49.792;9.946;2023-02-28T07:52:03;6.05;;;3.95;;
13975;SDS011;7062;49.792;9.946;2023-02-28T07:54:30;11.07;;;4.45;;
13975;SDS011;7062;49.792;9.946;2023-02-28T07:56:56;10.23;;;5.30;;
13975;SDS011;7062;49.792;9.946;2023-02-28T07:59:21;4.83;;;3.87;;
13975;SDS011;7062;49.792;9.946;2023-02-28T08:01:47;6.97;;;5.10;;
13975;SDS011;7062;49.792;9.946;2023-02-28T08:04:15;5.95;;;4.70;;
13975;SDS011;7062;49.792;9.946;2023-02-28T08:06:41;6.55;;;4.70;;
13975;SDS011;7062;49.792;9.946;2023-02-28T08:09:07;8.07;;;5.43;;
13975;SDS011;7062;49.792;9.946;2023-02-28T08:11:33;9.23;;;5.73;;
13975;SDS011;7062;49.792;9.946;2023-02-28T08:13:58;7.77;;;5.90;;
13975;SDS011;7062;49.792;9.946;2023-02-28T08:16:24;6.90;;;6.00;;
13975;SDS011;7062;49.792;9.946;2023-02-28T08:18:50;14.00;;;6.07;;
13975;SDS011;7062;49.792;9.946;2023-02-28T08:21:16;6.85;;;5.32;;
13975;SDS011;7062;49.792;9.946;2023-02-28T08:23:42;19.08;;;6.93;;
13975;SDS011;7062;49.792;9.946;2023-02-28T08:26:08;7.77;;;5.87;;
13975;SDS011;7062;49.792;9.946;2023-02-28T08:28:34;8.05;;;5.38;;
13975;SDS011;7062;49.792;9.946;2023-02-28T08:31:00;8.80;;;6.23;;
13975;SDS011;7062;49.792;9.946;2023-02-28T08:33:26;8.47;;;6.83;;
13975;SDS011;7062;49.792;9.946;2023-02-28T08:35:55;10.38;;;5.57;;
13975;SDS011;7062;49.792;9.946;2023-02-28T08:38:22;8.02;;;6.13;;
13975;SDS011;7062;49.792;9.946;2023-02-28T08:40:48;6.28;;;5.68;;
13975;SDS011;7062;49.792;9.946;2023-02-28T08:43:13;9.20;;;6.27;;
13975;SDS011;7062;49.792;9.946;2023-02-28T08:45:39;10.37;;;6.87;;
13975;SDS011;7062;49.792;9.946;2023-02-28T08:48:05;10.43;;;7.88;;
13975;SDS011;7062;49.792;9.946;2023-02-28T08:50:31;8.77;;;6.77;;
13975;SDS011;7062;49.792;9.946;2023-02-28T08:52:56;8.27;;;6.40;;
13975;SDS011;7062;49.792;9.946;2023-02-28T08:55:22;8.00;;;6.83;;
13975;SDS011;7062;49.792;9.946;2023-02-28T08:57:48;7.10;;;6.38;;
13975;SDS011;7062;49.792;9.946;2023-02-28T09:00:14;7.23;;;5.50;;
13975;SDS011;7062;49.792;9.946;2023-02-28T09:02:40;8.00;;;5.97;;
13975;SDS011;7062;49.792;9.946;2023-02-28T09:05:07;6.73;;;6.03;;
13975;SDS011;7062;49.792;9.946;2023-02-28T09:07:33;7.70;;;6.73;;
13975;SDS011;7062;49.792;9.946;2023-02-28T09:09:59;6.93;;;5.80;;
13975;SDS011;7062;49.792;9.946;2023-02-28T09:12:25;8.77;;;6.90;;
13975;SDS011;7062;49.792;9.946;2023-02-28T09:14:52;7.27;;;6.50;;
13975;SDS011;7062;49.792;9.946;2023-02-28T09:17:18;7.50;;;6.10;;
13975;SDS011;7062;49.792;9.946;2023-02-28T09:19:44;7.97;;;5.50;;
13975;SDS011;7062;49.792;9.946;2023-02-28T09:22:12;7.67;;;5.90;;
13975;SDS011;7062;49.792;9.946;2023-02-28T09:24:38;6.80;;;5.63;;
13975;SDS011;7062;49.792;9.946;2023-02-28T09:27:04;7.83;;;5.33;;
13975;SDS011;7062;49.792;9.946;2023-02-28T09:29:31;8.10;;;6.70;;
13975;SDS011;7062;49.792;9.946;2023-02-28T09:31:57;6.57;;;5.57;;
13975;SDS011;7062;49.792;9.946;2023-02-28T09:34:27;6.40;;;5.63;;
13975;SDS011;7062;49.792;9.946;2023-02-28T09:36:55;7.10;;;6.07;;
13975;SDS011;7062;49.792;9.946;2023-02-28T09:39:21;6.87;;;5.27;;
13975;SDS011;7062;49.792;9.946;2023-02-28T09:41:49;6.90;;;5.50;;
13975;SDS011;7062;49.792;9.946;2023-02-28T09:44:28;7.53;;;6.00;;
13975;SDS011;7062;49.792;9.946;2023-02-28T09:47:05;7.50;;;5.07;;
13975;SDS011;7062;49.792;9.946;2023-02-28T09:49:45;6.70;;;5.10;;
13975;SDS011;7062;49.792;9.946;2023-02-28T09:52:20;11.40;;;6.13;;
13975;SDS011;7062;49.792;9.946;2023-02-28T09:54:51;6.73;;;5.47;;
13975;SDS011;7062;49.792;9.946;2023-02-28T10:00:19;7.00;;;5.73;;
13975;SDS011;7062;49.792;9.946;2023-02-28T10:02:53;5.27;;;4.57;;
13975;SDS011;7062;49.792;9.946;2023-02-28T10:05:21;6.03;;;5.43;;
13975;SDS011;7062;49.792;9.946;2023-02-28T10:10:40;6.63;;;5.80;;
13975;SDS011;7062;49.792;9.946;2023-02-28T10:15:39;6.23;;;4.70;;
13975;SDS011;7062;49.792;9.946;2023-02-28T10:18:09;11.03;;;7.83;;
13975;SDS011;7062;49.792;9.946;2023-02-28T10:20:39;7.60;;;6.13;;
13975;SDS011;7062;49.792;9.946;2023-02-28T10:23:11;7.63;;;6.93;;
13975;SDS011;7062;49.792;9.946;2023-02-28T10:25:41;6.17;;;5.57;;
13975;SDS011;7062;49.792;9.946;2023-02-28T10:28:16;7.67;;;6.87;;
13975;SDS011;7062;49.792;9.946;2023-02-28T10:30:46;7.53;;;6.20;;
13975;SDS011;7062;49.792;9.946;2023-02-28T10:33:19;8.37;;;6.00;;
13975;SDS011;7062;49.792;9.946;2023-02-28T10:35:50;6.20;;;5.60;;
13975;SDS011;7062;49.792;9.946;2023-02-28T10:38:26;7.57;;;5.83;;
13975;SDS011;7062;49.792;9.946;2023-02-28T10:44:12;7.43;;;5.80;;
13975;SDS011;7062;49.792;9.946;2023-02-28T10:46:42;5.77;;;5.27;;
13975;SDS011;7062;49.792;9.946;2023-02-28T10:49:41;6.23;;;5.60;;
13975;SDS011;7062;49.792;9.946;2023-02-28T10:52:03;5.73;;;5.23;;
13975;SDS011;7062;49.792;9.946;2023-02-28T10:54:35;5.43;;;5.00;;
13975;SDS011;7062;49.792;9.946;2023-02-28T10:57:06;6.40;;;5.80;;
13975;SDS011;7062;49.792;9.946;2023-02-28T10:59:42;9.07;;;5.63;;
13975;SDS011;7062;49.792;9.946;2023-02-28T11:02:28;5.77;;;5.27;;
13975;SDS011;7062;49.792;9.946;2023-02-28T11:05:20;6.07;;;5.40;;
13975;SDS011;7062;49.792;9.946;2023-02-28T11:08:05;7.00;;;5.80;;
13975;SDS011;7062;49.792;9.946;2023-02-28T11:10:43;6.50;;;5.90;;
13975;SDS011;7062;49.792;9.946;2023-02-28T11:13:31;6.70;;;5.70;;
13975;SDS011;7062;49.792;9.946;2023-02-28T11:16:00;9.20;;;5.83;;
13975;SDS011;7062;49.792;9.946;2023-02-28T11:18:29;6.33;;;5.73;;
13975;SDS011;7062;49.792;9.946;2023-02-28T11:20:59;10.30;;;6.57;;
13975;SDS011;7062;49.792;9.946;2023-02-28T11:23:27;6.57;;;5.70;;
13975;SDS011;7062;49.792;9.946;2023-02-28T11:25:56;6.20;;;5.60;;
13975;SDS011;7062;49.792;9.946;2023-02-28T11:28:31;6.97;;;5.63;;
13975;SDS011;7062;49.792;9.946;2023-02-28T11:36:19;6.70;;;5.47;;
13975;SDS011;7062;49.792;9.946;2023-02-28T11:38:46;6.33;;;5.73;;
13975;SDS011;7062;49.792;9.946;2023-02-28T11:41:22;7.53;;;5.63;;
13975;SDS011;7062;49.792;9.946;2023-02-28T11:53:03;6.20;;;5.13;;
13975;SDS011;7062;49.792;9.946;2023-02-28T11:55:42;7.63;;;6.80;;
13975;SDS011;7062;49.792;9.946;2023-02-28T12:12:07;6.77;;;6.07;;
13975;SDS011;7062;49.792;9.946;2023-02-28T12:18:05;7.30;;;5.23;;
13975;SDS011;7062;49.792;9.946;2023-02-28T12:20:54;6.57;;;5.97;;
13975;SDS011;7062;49.792;9.946;2023-02-28T12:31:51;7.53;;;5.53;;
13975;SDS011;7062;49.792;9.946;2023-02-28T12:34:26;7.13;;;6.37;;
13975;SDS011;7062;49.792;9.946;2023-02-28T12:36:56;7.57;;;6.47;;
13975;SDS011;7062;49.792;9.946;2023-02-28T12:39:26;7.23;;;6.50;;
13975;SDS011;7062;49.792;9.946;2023-02-28T12:42:05;6.53;;;5.93;;
13975;SDS011;7062;49.792;9.946;2023-02-28T12:44:46;7.10;;;6.17;;
13975;SDS011;7062;49.792;9.946;2023-02-28T12:47:17;7.07;;;6.37;;
13975;SDS011;7062;49.792;9.946;2023-02-28T12:52:16;6.27;;;5.67;;
13975;SDS011;7062;49.792;9.946;2023-02-28T12:54:48;7.23;;;6.13;;
13975;SDS011;7062;49.792;9.946;2023-02-28T12:57:25;6.63;;;5.93;;
13975;SDS011;7062;49.792;9.946;2023-02-28T13:00:01;6.47;;;5.87;;
13975;SDS011;7062;49.792;9.946;2023-02-28T13:10:57;6.83;;;6.13;;
13975;SDS011;7062;49.792;9.946;2023-02-28T13:13:23;8.00;;;6.90;;
13975;SDS011;7062;49.792;9.946;2023-02-28T13:18:28;5.87;;;5.20;;
13975;SDS011;7062;49.792;9.946;2023-02-28T13:21:02;10.93;;;6.93;;
13975;SDS011;7062;49.792;9.946;2023-02-28T13:23:38;9.00;;;6.57;;
13975;SDS011;7062;49.792;9.946;2023-02-28T13:26:17;8.27;;;7.57;;
13975;SDS011;7062;49.792;9.946;2023-02-28T13:31:18;12.33;;;6.20;;
13975;SDS011;7062;49.792;9.946;2023-02-28T13:38:51;7.93;;;7.13;;
13975;SDS011;7062;49.792;9.946;2023-02-28T13:46:27;7.60;;;6.37;;
13975;SDS011;7062;49.792;9.946;2023-02-28T13:48:53;6.87;;;6.17;;
13975;SDS011;7062;49.792;9.946;2023-02-28T13:51:35;11.87;;;6.23;;
13975;SDS011;7062;49.792;9.946;2023-02-28T13:54:16;7.23;;;6.63;;
13975;SDS011;7062;49.792;9.946;2023-02-28T13:56:57;7.93;;;6.57;;
13975;SDS011;7062;49.792;9.946;2023-02-28T14:05:31;6.97;;;6.37;;
13975;SDS011;7062;49.792;9.946;2023-02-28T14:07:59;8.87;;;7.00;;
13975;SDS011;7062;49.792;9.946;2023-02-28T14:13:38;7.07;;;6.30;;
13975;SDS011;7062;49.792;9.946;2023-02-28T14:16:09;7.90;;;7.10;;
13975;SDS011;7062;49.792;9.946;2023-02-28T14:18:47;7.40;;;6.57;;
13975;SDS011;7062;49.792;9.946;2023-02-28T14:21:27;7.33;;;6.47;;
13975;SDS011;7062;49.792;9.946;2023-02-28T14:34:53;7.00;;;6.37;;
13975;SDS011;7062;49.792;9.946;2023-02-28T14:37:26;7.33;;;6.63;;
13975;SDS011;7062;49.792;9.946;2023-02-28T14:40:02;7.67;;;6.63;;
13975;SDS011;7062;49.792;9.946;2023-02-28T14:44:59;7.03;;;6.23;;
13975;SDS011;7062;49.792;9.946;2023-02-28T14:47:35;7.20;;;6.50;;
13975;SDS011;7062;49.792;9.946;2023-02-28T14:50:02;7.27;;;6.57;;
13975;SDS011;7062;49.792;9.946;2023-02-28T14:52:29;7.57;;;6.87;;
13975;SDS011;7062;49.792;9.946;2023-02-28T14:54:59;7.50;;;6.13;;
13975;SDS011;7062;49.792;9.946;2023-02-28T14:57:31;7.70;;;6.20;;
13975;SDS011;7062;49.792;9.946;2023-02-28T15:02:48;7.43;;;6.77;;
13975;SDS011;7062;49.792;9.946;2023-02-28T15:07:47;7.57;;;6.77;;
13975;SDS011;7062;49.792;9.946;2023-02-28T15:10:21;7.10;;;6.37;;
13975;SDS011;7062;49.792;9.946;2023-02-28T15:12:56;6.80;;;6.13;;
13975;SDS011;7062;49.792;9.946;2023-02-28T15:20:48;8.13;;;6.20;;
13975;SDS011;7062;49.792;9.946;2023-02-28T15:23:15;7.40;;;6.30;;
13975;SDS011;7062;49.792;9.946;2023-02-28T15:25:43;7.83;;;5.93;;
13975;SDS011;7062;49.792;9.946;2023-02-28T15:28:11;6.90;;;6.20;;
13975;SDS011;7062;49.792;9.946;2023-02-28T15:30:50;7.07;;;6.33;;
13975;SDS011;7062;49.792;9.946;2023-02-28T15:33:20;6.77;;;5.87;;
13975;SDS011;7062;49.792;9.946;2023-02-28T15:35:51;6.80;;;6.10;;
13975;SDS011;7062;49.792;9.946;2023-02-28T15:38:29;7.20;;;5.33;;
13975;SDS011;7062;49.792;9.946;2023-02-28T15:41:01;8.07;;;6.77;;
13975;SDS011;7062;49.792;9.946;2023-02-28T15:43:37;6.37;;;5.67;;
13975;SDS011;7062;49.792;9.946;2023-02-28T15:46:08;7.07;;;6.30;;
13975;SDS011;7062;49.792;9.946;2023-02-28T15:51:22;7.83;;;6.57;;
13975;SDS011;7062;49.792;9.946;2023-02-28T15:54:02;8.43;;;6.60;;
13975;SDS011;7062;49.792;9.946;2023-02-28T15:56:34;8.80;;;7.00;;
13975;SDS011;7062;49.792;9.946;2023-02-28T15:59:04;7.97;;;6.47;;
13975;SDS011;7062;49.792;9.946;2023-02-28T16:01:36;8.50;;;6.10;;
13975;SDS011;7062;49.792;9.946;2023-02-28T16:04:24;7.70;;;5.87;;
13975;SDS011;7062;49.792;9.946;2023-02-28T16:09:23;7.60;;;6.80;;
13975;SDS011;7062;49.792;9.946;2023-02-28T16:11:49;8.07;;;6.73;;
13975;SDS011;7062;49.792;9.946;2023-02-28T16:14:21;8.20;;;6.13;;
13975;SDS011;7062;49.792;9.946;2023-02-28T16:16:50;7.80;;;7.10;;
13975;SDS011;7062;49.792;9.946;2023-02-28T16:19:18;8.20;;;6.50;;
13975;SDS011;7062;49.792;9.946;2023-02-28T16:21:44;9.70;;;7.13;;
13975;SDS011;7062;49.792;9.946;2023-02-28T16:24:10;9.23;;;6.53;;
13975;SDS011;7062;49.792;9.946;2023-02-28T16:26:36;8.43;;;7.47;;
13975;SDS011;7062;49.792;9.946;2023-02-28T16:29:05;9.47;;;6.93;;
13975;SDS011;7062;49.792;9.946;2023-02-28T16:31:35;7.83;;;7.03;;
13975;SDS011;7062;49.792;9.946;2023-02-28T16:34:02;10.33;;;7.73;;
13975;SDS011;7062;49.792;9.946;2023-02-28T16:36:29;8.80;;;6.33;;
13975;SDS011;7062;49.792;9.946;2023-02-28T16:38:55;11.17;;;7.57;;
13975;SDS011;7062;49.792;9.946;2023-02-28T16:41:22;9.57;;;6.57;;
13975;SDS011;7062;49.792;9.946;2023-02-28T16:43:52;8.10;;;6.93;;
13975;SDS011;7062;49.792;9.946;2023-02-28T16:46:23;9.93;;;7.00;;
13975;SDS011;7062;49.792;9.946;2023-02-28T16:48:52;10.90;;;7.00;;
13975;SDS011;7062;49.792;9.946;2023-02-28T16:51:17;9.37;;;6.83;;
13975;SDS011;7062;49.792;9.946;2023-02-28T16:53:43;8.83;;;7.13;;
13975;SDS011;7062;49.792;9.946;2023-02-28T16:56:17;10.07;;;8.03;;
13975;SDS011;7062;49.792;9.946;2023-02-28T16:58:45;10.87;;;8.80;;
13975;SDS011;7062;49.792;9.946;2023-02-28T17:01:11;9.73;;;8.30;;
13975;SDS011;7062;49.792;9.946;2023-02-28T17:03:37;8.30;;;7.37;;
13975;SDS011;7062;49.792;9.946;2023-02-28T17:06:05;11.57;;;8.83;;
13975;SDS011;7062;49.792;9.946;2023-02-28T17:08:38;9.95;;;8.20;;
13975;SDS011;7062;49.792;9.946;2023-02-28T17:11:04;11.90;;;8.43;;
13975;SDS011;7062;49.792;9.946;2023-02-28T17:13:29;12.23;;;9.87;;
13975;SDS011;7062;49.792;9.946;2023-02-28T17:15:55;11.67;;;9.50;;
13975;SDS011;7062;49.792;9.946;2023-02-28T17:18:21;10.80;;;8.67;;
13975;SDS011;7062;49.792;9.946;2023-02-28T17:20:47;10.67;;;8.57;;
13975;SDS011;7062;49.792;9.946;2023-02-28T17:23:13;10.98;;;8.63;;
13975;SDS011;7062;49.792;9.946;2023-02-28T17:25:39;10.43;;;8.37;;
13975;SDS011;7062;49.792;9.946;2023-02-28T17:28:04;12.20;;;9.60;;
13975;SDS011;7062;49.792;9.946;2023-02-28T17:30:30;11.93;;;8.67;;
13975;SDS011;7062;49.792;9.946;2023-02-28T17:32:58;14.57;;;8.98;;
13975;SDS011;7062;49.792;9.946;2023-02-28T17:35:24;17.03;;;10.77;;
13975;SDS011;7062;49.792;9.946;2023-02-28T17:37:51;11.93;;;9.85;;
13975;SDS011;7062;49.792;9.946;2023-02-28T17:40:18;12.47;;;9.20;;
13975;SDS011;7062;49.792;9.946;2023-02-28T17:42:45;11.27;;;9.18;;
13975;SDS011;7062;49.792;9.946;2023-02-28T17:45:11;13.13;;;9.07;;
13975;SDS011;7062;49.792;9.946;2023-02-28T17:47:38;11.13;;;8.70;;